Time,TemperatureF,DewpointF,PressureIn,WindDirection,WindDirectionDegrees,WindSpeedMPH,WindSpeedGustMPH,Humidity,HourlyPrecipIn,Conditions,Clouds,dailyrainin,SoftwareType,DateUTC
2013-05-25 00:10:00,41.9,35.6,29.99,ESE,112,0.0,-999.0,78,-99.99,,,0.00,Acu-Link.com,2013-05-25 04:10:00,
2013-05-25 00:30:00,41.5,34.8,29.98,ESE,112,0.0,-999.0,77,-99.99,,,0.00,Acu-Link.com,2013-05-25 04:30:00,
2013-05-25 00:58:00,40.3,35.3,29.98,NE,45,0.0,-999.0,82,-99.99,,,0.00,Acu-Link.com,2013-05-25 04:58:00,
2013-05-25 01:56:00,40.5,35.4,29.98,ESE,112,0.0,-999.0,82,-99.99,,,0.00,Acu-Link.com,2013-05-25 05:56:00,
2013-05-25 02:47:00,41.0,36.5,29.98,ESE,112,0.0,-999.0,84,-99.99,,,0.00,Acu-Link.com,2013-05-25 06:47:00,
2013-05-25 03:10:00,41.2,35.8,29.98,SSE,157,0.0,-999.0,81,-99.99,,,0.00,Acu-Link.com,2013-05-25 07:10:00,
2013-05-25 03:35:00,40.1,36.0,29.97,East,90,0.0,-999.0,85,-99.99,,,0.00,Acu-Link.com,2013-05-25 07:35:00,
2013-05-25 07:17:00,38.8,35.6,30.01,ESE,112,0.0,-999.0,88,-99.99,,,0.00,Acu-Link.com,2013-05-25 11:17:00,
2013-05-25 07:33:00,40.3,34.9,30.01,WSW,247,1.7,-999.0,81,-99.99,,,0.00,Acu-Link.com,2013-05-25 11:33:00,
2013-05-25 07:48:00,42.3,34.3,30.01,SSE,157,0.0,-999.0,73,-99.99,,,0.00,Acu-Link.com,2013-05-25 11:48:00,
2013-05-25 08:03:00,42.1,34.1,30.01,South,180,1.7,-999.0,73,-99.99,,,0.00,Acu-Link.com,2013-05-25 12:03:00,
2013-05-25 08:18:00,43.7,34.2,29.99,West,270,1.7,-999.0,69,-99.99,,,0.00,Acu-Link.com,2013-05-25 12:18:00,
2013-05-25 08:33:00,45.3,34.6,29.99,West,270,2.7,-999.0,66,-99.99,,,0.00,Acu-Link.com,2013-05-25 12:33:00,
2013-05-25 08:48:00,46.6,33.0,30.00,West,270,3.2,-999.0,59,-99.99,,,0.00,Acu-Link.com,2013-05-25 12:48:00,
2013-05-25 09:03:00,47.1,32.7,30.00,NE,45,1.7,-999.0,57,-99.99,,,0.00,Acu-Link.com,2013-05-25 13:03:00,
2013-05-25 09:18:00,47.8,32.4,30.01,NNE,22,4.2,-999.0,55,-99.99,,,0.00,Acu-Link.com,2013-05-25 13:18:00,
2013-05-25 09:39:00,48.4,32.1,29.99,East,90,2.7,-999.0,53,-99.99,,,0.00,Acu-Link.com,2013-05-25 13:39:00,
2013-05-25 10:06:00,50.0,34.0,29.99,SSE,157,7.8,-999.0,54,-99.99,,,0.00,Acu-Link.com,2013-05-25 14:06:00,
2013-05-25 10:29:00,51.6,34.6,30.00,East,90,5.8,-999.0,52,-99.99,,,0.00,Acu-Link.com,2013-05-25 14:29:00,
2013-05-25 10:46:00,50.9,32.9,30.00,ENE,67,4.7,-999.0,50,-99.99,,,0.00,Acu-Link.com,2013-05-25 14:46:00,
2013-05-25 11:07:00,52.0,33.9,30.00,ESE,112,4.7,-999.0,50,-99.99,,,0.00,Acu-Link.com,2013-05-25 15:07:00,
2013-05-25 11:23:00,52.5,33.9,29.99,ENE,67,9.4,-999.0,49,-99.99,,,0.00,Acu-Link.com,2013-05-25 15:23:00,
2013-05-25 11:45:00,54.0,34.2,29.98,NNE,22,14.5,-999.0,47,-99.99,,,0.00,Acu-Link.com,2013-05-25 15:45:00,
2013-05-25 12:08:00,56.1,35.1,29.98,NE,45,10.4,-999.0,45,-99.99,,,0.00,Acu-Link.com,2013-05-25 16:08:00,
2013-05-25 12:24:00,56.7,34.5,29.98,NE,45,12.5,-999.0,43,-99.99,,,0.00,Acu-Link.com,2013-05-25 16:24:00,
2013-05-25 12:42:00,57.0,35.3,29.97,SSE,157,7.3,-999.0,44,-99.99,,,0.00,Acu-Link.com,2013-05-25 16:42:00,
2013-05-25 12:57:00,58.1,33.9,29.96,SSE,157,9.4,-999.0,40,-99.99,,,0.00,Acu-Link.com,2013-05-25 16:57:00,
2013-05-25 13:13:00,58.1,35.7,29.96,ESE,112,2.2,-999.0,43,-99.99,,,0.00,Acu-Link.com,2013-05-25 17:13:00,
2013-05-25 13:33:00,59.4,36.3,29.95,East,90,6.3,-999.0,42,-99.99,,,0.00,Acu-Link.com,2013-05-25 17:33:00,
2013-05-25 14:11:00,60.4,36.0,29.93,South,180,5.3,-999.0,40,-99.99,,,0.00,Acu-Link.com,2013-05-25 18:11:00,
2013-05-25 14:33:00,60.8,36.3,29.92,East,90,12.5,-999.0,40,-99.99,,,0.00,Acu-Link.com,2013-05-25 18:33:00,
2013-05-25 14:49:00,62.1,34.8,29.91,West,270,5.8,-999.0,36,-99.99,,,0.00,Acu-Link.com,2013-05-25 18:49:00,
2013-05-25 15:05:00,61.5,33.6,29.91,ENE,67,5.3,-999.0,35,-99.99,,,0.00,Acu-Link.com,2013-05-25 19:05:00,
2013-05-25 15:38:00,62.1,34.1,29.90,NE,45,4.7,-999.0,35,-99.99,,,0.00,Acu-Link.com,2013-05-25 19:38:00,
2013-05-25 16:10:00,63.0,34.2,29.90,NE,45,10.4,-999.0,34,-99.99,,,0.00,Acu-Link.com,2013-05-25 20:10:00,
2013-05-25 16:32:00,62.8,32.5,29.89,NE,45,5.3,-999.0,32,-99.99,,,0.00,Acu-Link.com,2013-05-25 20:32:00,
2013-05-25 18:35:00,61.5,32.1,29.91,NNE,22,6.3,-999.0,33,-99.99,,,0.00,Acu-Link.com,2013-05-25 22:35:00,
2013-05-25 19:19:00,61.7,32.3,29.93,NNE,22,10.4,-999.0,33,-99.99,,,0.00,Acu-Link.com,2013-05-25 23:19:00,
2013-05-25 19:35:00,60.1,32.4,29.94,East,90,4.7,-999.0,35,-99.99,,,0.00,Acu-Link.com,2013-05-25 23:35:00,
2013-05-25 19:57:00,56.7,32.0,29.94,West,270,6.8,-999.0,39,-99.99,,,0.00,Acu-Link.com,2013-05-25 23:57:00,
2013-05-25 20:13:00,55.9,31.9,29.94,ENE,67,2.7,-999.0,40,-99.99,,,0.00,Acu-Link.com,2013-05-26 00:13:00,
2013-05-25 20:28:00,54.9,32.2,29.95,ENE,67,2.7,-999.0,42,-99.99,,,0.00,Acu-Link.com,2013-05-26 00:28:00,
2013-05-25 20:49:00,53.4,33.7,29.95,NE,45,0.0,-999.0,47,-99.99,,,0.00,Acu-Link.com,2013-05-26 00:49:00,
2013-05-25 21:05:00,52.3,33.7,29.95,WSW,247,1.1,-999.0,49,-99.99,,,0.00,Acu-Link.com,2013-05-26 01:05:00,
2013-05-25 21:22:00,51.6,33.6,29.96,West,270,2.7,-999.0,50,-99.99,,,0.00,Acu-Link.com,2013-05-26 01:22:00,
2013-05-25 21:52:00,49.6,35.9,29.96,West,270,1.7,-999.0,59,-99.99,,,0.00,Acu-Link.com,2013-05-26 01:52:00,
2013-05-25 22:09:00,48.9,34.8,29.97,NNE,22,1.1,-999.0,58,-99.99,,,0.00,Acu-Link.com,2013-05-26 02:09:00,
2013-05-25 22:40:00,46.6,36.6,29.97,East,90,1.7,-999.0,68,-99.99,,,0.00,Acu-Link.com,2013-05-26 02:40:00,
2013-05-25 22:56:00,45.7,36.1,29.97,ESE,112,1.7,-999.0,69,-99.99,,,0.00,Acu-Link.com,2013-05-26 02:56:00,
2013-05-25 23:11:00,44.4,34.9,29.97,East,90,0.0,-999.0,69,-99.99,,,0.00,Acu-Link.com,2013-05-26 03:11:00,
2013-05-25 23:26:00,44.2,34.7,29.98,NE,45,0.0,-999.0,69,-99.99,,,0.00,Acu-Link.com,2013-05-26 03:26:00,
2013-05-25 23:41:00,43.5,34.7,29.98,East,90,0.0,-999.0,71,-99.99,,,0.00,Acu-Link.com,2013-05-26 03:41:00,
2013-05-25 23:56:00,42.6,34.2,29.98,ENE,67,0.0,-999.0,72,-99.99,,,0.00,Acu-Link.com,2013-05-26 03:56:00,